Meteo Giornale » Osservazioni meteo Stati Uniti (USA) » Biggs Army Air Fld-Ft Bliss
ore: 11:55 - Osservazioni Meteo Biggs Army Air Fld-Ft Bliss
Lat. 31° 51' N Lon. 106° 23' W Alt. 1204 metri s.l.m.
31 °C
Sereno
Temp. 24 Ore
24 °C
37 °C
Nord
0 Km/h
Dew point 12 °C
Umidità 31 %
Visibilità 10 Km
Il sole sorge alle ore 06:41
Il sole tramonta alle ore 19:29
| Data e Ora | Cielo e Fenomeni | T °C | DP °C | Um. % | Pres. hPa | Vis. km | Vento km/h | |
|---|---|---|---|---|---|---|---|---|
| Oggi h: 11:55 | Sereno | 31 | 12 | 31 | 1020 | 10 | N 0 | |
| Oggi h: 10:55 | Sereno | 29 | 13 | 37 | 1020 | 10 | N 0 | |
| Oggi h: 09:55 | Poco Nuvoloso | 27 | 13 | 42 | 1020 | 10 | N 0 | |
| Oggi h: 08:55 | Molto Nuvoloso | 27 | 13 | 42 | 1019 | 10 | E/SE 7.4 | |
| Oggi h: 07:55 | Molto Nuvoloso | 25 | 14 | 50 | 1019 | 14 | N 5.5 | |
| Oggi h: 06:55 | Coperto | 25 | 14 | 50 | 1019 | 10 | N 5.5 | |
| Oggi h: 05:55 | Nuvoloso | 25 | 13 | 47 | 1018 | 10 | SO 11.1 | |
| Oggi h: 04:55 | Coperto | 25 | 14 | 50 | 1018 | 10 | N 5.5 | |
| Oggi h: 03:55 | Sereno | 25 | 13 | 47 | 1018 | 10 | E/NE 7.4 | |
| Oggi h: 02:55 | Sereno | 24 | 15 | 57 | 1018 | 10 | N 0 | |
| Oggi h: 01:55 | Poco Nuvoloso | 26 | 15 | 50 | 1018 | 10 | N 5.5 | |
| Oggi h: 00:55 | Molto Nuvoloso | 27 | 13 | 42 | 1019 | 10 | S/SO 16.7 | |
| Ieri h: 23:56 | Nuvoloso | 28 | 13 | 39 | 1018 | 10 | O/NO 11.1 | |
| Ieri h: 23:55 | Pioggia | 28 | 13 | 39 | 1018 | 10 | O/NO 11.1 | |
| Ieri h: 23:42 | Pioggia | 28 | 13 | 39 | 1018 | 10 | N/NO 14.8 | |
| Ieri h: 22:55 | Nuvoloso | 28 | 12 | 37 | 1017 | 10 | E 13 | |
| Ieri h: 21:55 | Poco Nuvoloso | 27 | 13 | 42 | 1017 | 10 | NO 24 | |
| Ieri h: 21:18 | raffiche di vento | 27 | 14 | 44 | 1015 | 10 | O/NO 53.7 | |
| Ieri h: 20:55 | Sereno | 28 | 15 | 45 | 1015 | 13 | O/NO 42.6 | |
| Ieri h: 19:55 | Foschia | 29 | 13 | 37 | 1015 | 10 | O 50 | |
| Ieri h: 18:55 | Nuvoloso | 36 | 8 | 18 | 1012 | 10 | O/SO 14.8 | |
| Ieri h: 17:55 | Sereno | 37 | 7 | 15 | 1013 | 10 | N 0 | |
| Ieri h: 16:55 | Sereno | 37 | 7 | 15 | 1013 | 10 | SO 9.3 | |
| Ieri h: 15:55 | Sereno | 37 | 9 | 18 | 1014 | 10 | E/SE 9.3 | |
| Ieri h: 14:55 | Sereno | 36 | 10 | 20 | 1015 | 10 | E/SE 7.4 | |
| Ieri h: 13:55 | Sereno | 35 | 10 | 21 | 1016 | 10 | N 0 | |
| Ieri h: 12:55 | Sereno | 35 | 10 | 21 | 1017 | 10 | SE 7.4 | |



